Time;durP1;ratioP1;P1;durP2;ratioP2;P2;SDS_P1;SDS_P2;PMS_P1;PMS_P2;Temp;Humidity;BMP_temperature;BMP_pressure;BME280_temperature;BME280_humidity;BME280_pressure;Samples;Min_cycle;Max_cycle;Signal;HPM_P1;HPM_P2
2023/02/23 00:01:16;;;;;;;23.27;20.80;;;12.20;99.90;;;;;;5013584;28;20193;-74
2023/02/23 00:03:43;;;;;;;23.48;20.92;;;12.20;99.90;;;;;;5012411;28;20228;-74
2023/02/23 00:06:10;;;;;;;22.17;19.67;;;12.20;99.90;;;;;;5014133;28;20178;-74
2023/02/23 00:08:36;;;;;;;19.08;17.13;;;12.20;99.90;;;;;;5012889;28;20232;-74
2023/02/23 00:11:07;;;;;;;23.98;21.05;;;12.20;99.90;;;;;;5012369;28;20202;-74
2023/02/23 00:13:36;;;;;;;22.95;20.48;;;12.20;99.90;;;;;;5028806;28;20171;-74
2023/02/23 00:16:13;;;;;;;23.42;20.92;;;12.20;99.90;;;;;;5014343;28;20190;-74
2023/02/23 00:18:52;;;;;;;20.67;18.38;;;12.20;99.90;;;;;;5012638;28;20177;-74
2023/02/23 00:21:34;;;;;;;27.27;22.50;;;12.20;99.90;;;;;;4995423;28;20282;-74
2023/02/23 00:24:10;;;;;;;24.73;22.23;;;12.20;99.90;;;;;;5014026;28;20245;-74
2023/02/23 00:26:38;;;;;;;24.42;21.23;;;12.20;99.90;;;;;;4996509;28;20190;-74
2023/02/23 00:29:12;;;;;;;23.80;20.63;;;12.20;99.90;;;;;;5012981;28;20232;-74
2023/02/23 00:31:38;;;;;;;23.50;20.98;;;12.20;99.90;;;;;;5012034;28;20174;-74
2023/02/23 00:34:05;;;;;;;24.58;22.05;;;12.20;99.90;;;;;;5014121;28;20206;-74
2023/02/23 00:36:34;;;;;;;26.85;24.05;;;12.20;99.90;;;;;;5013504;28;20571;-75
2023/02/23 00:39:17;;;;;;;25.15;22.48;;;12.20;99.90;;;;;;5012760;28;20178;-75
2023/02/23 00:41:43;;;;;;;25.13;22.65;;;12.10;99.90;;;;;;4995059;28;20288;-75
2023/02/23 00:44:09;;;;;;;25.88;21.98;;;12.10;99.90;;;;;;5013856;28;20268;-75
2023/02/23 00:46:35;;;;;;;25.33;21.50;;;12.10;99.90;;;;;;5012609;28;20686;-75
2023/02/23 00:49:01;;;;;;;23.37;20.50;;;12.10;99.90;;;;;;5013939;28;20166;-75
2023/02/23 00:51:30;;;;;;;25.37;22.67;;;12.10;99.90;;;;;;5012539;28;20628;-75
2023/02/23 00:53:58;;;;;;;30.77;21.70;;;12.10;99.90;;;;;;5011178;28;20708;-75
2023/02/23 00:56:24;;;;;;;25.27;22.23;;;12.10;99.90;;;;;;5028313;28;20179;-75
2023/02/23 00:58:50;;;;;;;26.45;23.40;;;12.10;99.90;;;;;;5028654;28;20186;-76
2023/02/23 01:01:16;;;;;;;27.90;24.90;;;12.10;99.90;;;;;;5012598;28;20605;-75
2023/02/23 01:03:43;;;;;;;24.70;21.23;;;12.10;99.90;;;;;;5011950;28;20182;-75
2023/02/23 01:06:12;;;;;;;28.92;24.85;;;12.10;99.90;;;;;;5011479;28;20182;-75
2023/02/23 01:08:42;;;;;;;29.42;24.20;;;12.10;99.90;;;;;;5011475;28;20252;-75
2023/02/23 01:11:20;;;;;;;30.70;24.25;;;12.10;99.90;;;;;;5010323;28;20230;-75
2023/02/23 01:13:47;;;;;;;27.33;21.15;;;12.10;99.90;;;;;;4995052;28;20316;-75
2023/02/23 01:16:16;;;;;;;29.52;25.25;;;12.10;99.90;;;;;;5011983;28;20171;-75
2023/02/23 01:18:47;;;;;;;28.70;24.35;;;12.00;99.90;;;;;;5011454;28;20171;-75
2023/02/23 01:21:19;;;;;;;30.30;24.40;;;12.00;99.90;;;;;;5010048;28;20201;-75
2023/02/23 01:23:45;;;;;;;29.75;22.95;;;12.00;99.90;;;;;;5012457;28;20170;-74
2023/02/23 01:26:15;;;;;;;29.80;23.97;;;12.10;99.90;;;;;;4995299;28;20204;-75
2023/02/23 01:28:41;;;;;;;32.83;26.73;;;12.00;99.90;;;;;;5011366;28;20589;-75
2023/02/23 01:31:09;;;;;;;31.70;27.10;;;12.00;99.90;;;;;;5012215;28;20205;-75
2023/02/23 01:33:35;;;;;;;36.58;27.55;;;12.00;99.90;;;;;;4994873;28;20174;-75
2023/02/23 01:36:01;;;;;;;27.10;24.30;;;12.00;99.90;;;;;;4995300;28;20261;-75
2023/02/23 01:38:27;;;;;;;30.00;25.90;;;12.00;99.90;;;;;;5012383;28;20166;-75
2023/02/23 01:40:52;;;;;;;30.00;24.80;;;12.00;99.90;;;;;;5010400;28;20696;-75
2023/02/23 01:43:24;;;;;;;26.20;23.27;;;12.00;99.90;;;;;;4994996;28;21080;-74
2023/02/23 01:45:59;;;;;;;27.65;24.10;;;12.00;99.90;;;;;;5011058;28;20194;-75
2023/02/23 01:48:29;;;;;;;26.30;22.27;;;12.00;99.90;;;;;;5011400;28;20669;-74
2023/02/23 01:51:38;;;;;;;26.77;22.42;;;12.00;99.90;;;;;;5002806;28;20281;-74
2023/02/23 01:54:39;;;;;;;27.45;23.80;;;12.00;99.90;;;;;;4991365;28;20226;-75
2023/02/23 01:57:10;;;;;;;29.55;23.92;;;12.00;99.90;;;;;;4962145;28;20195;-75
2023/02/23 01:59:48;;;;;;;32.00;26.40;;;11.90;99.90;;;;;;4975219;28;20674;-75
2023/02/23 02:02:16;;;;;;;32.35;26.05;;;11.90;99.90;;;;;;4989485;28;20563;-75
2023/02/23 02:05:03;;;;;;;31.60;26.67;;;11.90;99.90;;;;;;4992243;28;20325;-75
2023/02/23 02:07:30;;;;;;;32.58;25.45;;;11.90;99.90;;;;;;4990829;28;20167;-75
2023/02/23 02:12:44;;;;;;;33.53;27.58;;;11.90;99.90;;;;;;5005009;28;20178;-75
2023/02/23 02:15:16;;;;;;;32.42;26.63;;;11.90;99.90;;;;;;4984484;28;20341;-75
2023/02/23 02:18:08;;;;;;;30.17;26.90;;;11.90;99.90;;;;;;5014219;28;20177;-74
2023/02/23 02:21:03;;;;;;;31.00;26.40;;;11.90;99.90;;;;;;5003044;28;20278;-75
2023/02/23 02:23:38;;;;;;;29.83;26.45;;;11.90;99.90;;;;;;4984972;28;20182;-75
2023/02/23 02:26:19;;;;;;;31.58;27.00;;;11.90;99.90;;;;;;4994251;28;20513;-75
2023/02/23 02:29:16;;;;;;;32.70;26.35;;;11.90;99.90;;;;;;5003920;28;20183;-74
2023/02/23 02:32:01;;;;;;;33.80;27.20;;;11.90;99.90;;;;;;4970677;28;20227;-75
2023/02/23 02:35:00;;;;;;;33.25;28.05;;;11.90;99.90;;;;;;5003329;28;20199;-75
2023/02/23 02:37:33;;;;;;;30.83;25.85;;;11.90;99.90;;;;;;4987163;28;20269;-75
2023/02/23 02:40:21;;;;;;;27.80;24.13;;;12.00;99.90;;;;;;4986580;28;20190;-75
2023/02/23 02:42:55;;;;;;;26.40;23.63;;;11.90;99.90;;;;;;5003497;28;20190;-75
2023/02/23 02:45:36;;;;;;;26.55;23.70;;;12.00;99.90;;;;;;4988791;28;20198;-75
2023/02/23 02:48:46;;;;;;;25.63;22.48;;;12.00;99.90;;;;;;5007653;28;20221;-75
2023/02/23 02:51:53;;;;;;;26.65;21.67;;;11.90;99.90;;;;;;4992535;28;20221;-75
2023/02/23 02:54:48;;;;;;;24.92;21.95;;;11.90;99.90;;;;;;4915093;29;20307;-75
2023/02/23 02:57:15;;;;;;;29.25;23.45;;;11.90;99.90;;;;;;4931457;29;20751;-75
2023/02/23 04:19:55;;;;;;;28.20;24.55;;;11.70;99.90;;;;;;5011920;28;20178;-74
2023/02/23 04:22:21;;;;;;;34.50;30.25;;;11.70;99.90;;;;;;5009227;28;20262;-74
2023/02/23 04:24:48;;;;;;;32.78;27.63;;;11.70;99.90;;;;;;4995291;28;20198;-74
2023/02/23 04:27:14;;;;;;;29.83;25.15;;;11.60;99.90;;;;;;5027324;28;20225;-76
2023/02/23 04:29:41;;;;;;;28.95;25.83;;;11.60;99.90;;;;;;4993739;28;20199;-75
2023/02/23 04:32:13;;;;;;;30.42;25.95;;;11.60;99.90;;;;;;5024846;28;20178;-75
2023/02/23 04:34:39;;;;;;;31.33;27.45;;;11.60;99.90;;;;;;5025663;28;20195;-75
2023/02/23 04:37:04;;;;;;;31.30;27.83;;;11.60;99.90;;;;;;4993962;28;20174;-75
2023/02/23 04:39:30;;;;;;;34.47;28.93;;;11.60;99.90;;;;;;4994242;28;20579;-75
2023/02/23 04:41:56;;;;;;;33.57;30.00;;;11.60;99.90;;;;;;4993269;28;20171;-75
2023/02/23 04:44:21;;;;;;;32.00;27.37;;;11.60;99.90;;;;;;5025568;28;20256;-75
2023/02/23 04:46:47;;;;;;;34.90;28.90;;;11.60;99.90;;;;;;5024949;28;20270;-75
2023/02/23 04:49:12;;;;;;;30.47;26.73;;;11.60;99.90;;;;;;5025731;28;20230;-75
2023/02/23 04:51:38;;;;;;;41.50;33.27;;;11.60;99.90;;;;;;4994758;28;20168;-75
2023/02/23 04:54:07;;;;;;;33.90;30.20;;;11.50;99.90;;;;;;5000950;28;20179;-76
2023/02/23 04:56:34;;;;;;;37.20;29.70;;;11.50;99.90;;;;;;5003341;28;20270;-75
2023/02/23 04:58:59;;;;;;;35.13;30.60;;;11.50;99.90;;;;;;4993436;28;20250;-75
2023/02/23 05:01:25;;;;;;;37.40;30.50;;;11.40;99.90;;;;;;5024477;28;20230;-75
2023/02/23 05:03:52;;;;;;;34.90;28.57;;;11.40;99.90;;;;;;4993480;28;21235;-75
2023/02/23 05:06:21;;;;;;;41.75;29.52;;;11.40;99.90;;;;;;4993721;28;20575;-75
2023/02/23 05:08:46;;;;;;;41.73;29.17;;;11.40;99.90;;;;;;5024903;28;20554;-75
2023/02/23 05:11:12;;;;;;;33.67;27.97;;;11.30;99.90;;;;;;4992727;28;20649;-75
2023/02/23 05:13:38;;;;;;;38.47;30.10;;;11.30;99.90;;;;;;5006804;28;20186;-74
2023/02/23 05:16:04;;;;;;;45.47;35.13;;;11.30;99.90;;;;;;5011389;28;20194;-74
2023/02/23 05:18:30;;;;;;;39.35;31.63;;;11.30;99.90;;;;;;4995377;28;20221;-73
2023/02/23 05:21:05;;;;;;;47.27;33.67;;;11.30;99.90;;;;;;5004025;28;20182;-74
2023/02/23 05:23:33;;;;;;;40.40;30.02;;;11.30;99.90;;;;;;4994678;28;20221;-74
2023/02/23 05:26:02;;;;;;;38.70;29.95;;;11.30;99.90;;;;;;5012752;28;20174;-74
2023/02/23 05:28:29;;;;;;;35.13;30.63;;;11.30;99.90;;;;;;5001876;28;20202;-74
2023/02/23 05:30:54;;;;;;;41.95;31.15;;;11.30;99.90;;;;;;4990607;28;20683;-73
2023/02/23 05:33:20;;;;;;;35.47;31.23;;;11.30;99.90;;;;;;5005991;28;20224;-73
2023/02/23 05:35:47;;;;;;;42.90;33.93;;;11.30;99.90;;;;;;5012210;28;20678;-74
2023/02/23 05:38:13;;;;;;;41.53;31.15;;;11.30;99.90;;;;;;5011450;28;21008;-73
2023/02/23 05:40:39;;;;;;;42.20;33.03;;;11.30;99.90;;;;;;5011951;28;20261;-74
2023/02/23 05:43:05;;;;;;;41.63;31.30;;;11.30;99.90;;;;;;5010900;28;20573;-74
2023/02/23 05:45:32;;;;;;;41.03;30.35;;;11.30;99.90;;;;;;5011649;28;20205;-73
2023/02/23 05:47:58;;;;;;;39.50;31.23;;;11.30;99.90;;;;;;5011298;28;20170;-74
2023/02/23 05:50:23;;;;;;;41.05;33.53;;;11.40;99.90;;;;;;5010362;28;20263;-73
2023/02/23 05:52:51;;;;;;;40.08;32.65;;;11.40;99.90;;;;;;5009070;28;20231;-73
2023/02/23 05:55:17;;;;;;;39.07;33.20;;;11.40;99.90;;;;;;5009535;28;20555;-73
2023/02/23 05:57:44;;;;;;;39.77;30.87;;;11.40;99.90;;;;;;5010298;28;20289;-73
2023/02/23 06:00:13;;;;;;;41.25;33.60;;;11.40;99.90;;;;;;5010060;28;20182;-73
2023/02/23 06:02:40;;;;;;;38.65;31.63;;;11.40;99.90;;;;;;5010200;28;20184;-73
2023/02/23 06:05:07;;;;;;;38.28;31.55;;;11.40;99.90;;;;;;5010033;28;20249;-73
2023/02/23 06:07:33;;;;;;;39.80;31.95;;;11.40;99.90;;;;;;5010239;28;20183;-74
2023/02/23 06:09:59;;;;;;;36.60;31.87;;;11.40;99.90;;;;;;5002677;28;20217;-73
2023/02/23 06:12:24;;;;;;;39.07;32.87;;;11.40;99.90;;;;;;5010852;28;20601;-73
2023/02/23 06:14:50;;;;;;;36.90;29.33;;;11.40;99.90;;;;;;5011807;28;20221;-73
2023/02/23 06:17:16;;;;;;;35.33;29.23;;;11.40;99.90;;;;;;5010566;28;20603;-73
2023/02/23 06:19:42;;;;;;;37.25;29.70;;;11.40;99.90;;;;;;5006844;28;20253;-74
2023/02/23 06:22:08;;;;;;;38.63;28.20;;;11.40;99.90;;;;;;5008692;28;20179;-74
2023/02/23 06:24:34;;;;;;;36.73;30.40;;;11.40;99.90;;;;;;5011060;28;20601;-74
2023/02/23 06:26:59;;;;;;;44.57;33.13;;;11.40;99.90;;;;;;5010597;28;20581;-75
2023/02/23 06:29:25;;;;;;;37.27;29.60;;;11.40;99.90;;;;;;5011086;28;20174;-73
2023/02/23 06:31:51;;;;;;;30.57;26.70;;;11.40;99.90;;;;;;5009510;28;20178;-73
2023/02/23 06:34:17;;;;;;;34.97;28.03;;;11.40;99.90;;;;;;5011088;28;20613;-73
2023/02/23 06:36:44;;;;;;;35.50;29.63;;;11.40;99.90;;;;;;4994046;28;20590;-72
2023/02/23 06:39:10;;;;;;;34.50;28.47;;;11.40;99.90;;;;;;5010792;28;20173;-73
2023/02/23 06:41:36;;;;;;;40.58;30.33;;;11.40;99.90;;;;;;5009579;28;20581;-73
2023/02/23 06:44:03;;;;;;;41.90;30.73;;;11.40;99.90;;;;;;4993710;28;20194;-72
2023/02/23 06:46:28;;;;;;;35.33;29.10;;;11.40;99.90;;;;;;5010922;28;20188;-73
2023/02/23 06:48:56;;;;;;;34.10;27.67;;;11.40;99.90;;;;;;5009989;28;20200;-72
2023/02/23 06:51:22;;;;;;;36.30;27.95;;;11.40;99.90;;;;;;4999117;28;20340;-73
2023/02/23 06:53:48;;;;;;;35.47;27.92;;;11.50;99.90;;;;;;5017887;28;20194;-72
2023/02/23 06:56:14;;;;;;;33.50;27.70;;;11.50;99.90;;;;;;5010552;28;20177;-72
2023/02/23 06:58:41;;;;;;;35.30;28.40;;;11.50;99.90;;;;;;5011182;28;20233;-73
2023/02/23 07:01:08;;;;;;;30.40;26.00;;;11.50;99.90;;;;;;5005920;28;20185;-75
2023/02/23 07:03:34;;;;;;;32.50;29.05;;;11.50;99.90;;;;;;5009716;28;20170;-75
2023/02/23 07:06:01;;;;;;;30.77;27.40;;;11.50;99.90;;;;;;5004990;28;20672;-73
2023/02/23 07:08:27;;;;;;;31.73;26.80;;;11.50;99.90;;;;;;5008867;28;20689;-74
2023/02/23 07:10:52;;;;;;;30.23;26.43;;;11.50;99.90;;;;;;5008719;28;20292;-74
2023/02/23 07:13:19;;;;;;;31.03;27.30;;;11.50;99.90;;;;;;4992445;28;20178;-76
2023/02/23 07:15:45;;;;;;;33.40;26.02;;;11.50;99.90;;;;;;5010943;28;20286;-75
2023/02/23 07:18:10;;;;;;;35.00;28.53;;;11.50;99.90;;;;;;5010159;28;20253;-75
2023/02/23 07:20:36;;;;;;;32.13;27.00;;;11.50;99.90;;;;;;4998662;28;20233;-75
2023/02/23 07:23:04;;;;;;;31.20;27.33;;;11.50;99.90;;;;;;4990211;28;20171;-74
2023/02/23 07:25:30;;;;;;;30.10;25.58;;;11.60;99.90;;;;;;5005975;28;20202;-75
2023/02/23 07:27:57;;;;;;;29.15;24.88;;;11.60;99.90;;;;;;4991232;28;20278;-74
2023/02/23 07:30:23;;;;;;;33.15;26.48;;;11.60;99.90;;;;;;4990038;28;20203;-74
2023/02/23 07:32:50;;;;;;;27.30;24.27;;;11.60;99.90;;;;;;5005842;28;20213;-74
2023/02/23 07:35:16;;;;;;;25.48;22.63;;;11.60;99.90;;;;;;5022230;28;20254;-74
2023/02/23 07:37:42;;;;;;;32.50;26.23;;;11.60;99.90;;;;;;4990828;28;20171;-74
2023/02/23 07:40:09;;;;;;;27.97;24.97;;;11.60;99.90;;;;;;4989718;28;20566;-74
2023/02/23 07:42:34;;;;;;;27.33;23.70;;;11.60;99.90;;;;;;4990766;28;20533;-75
2023/02/23 07:45:00;;;;;;;27.20;22.20;;;11.60;99.90;;;;;;5033595;28;20277;-74
2023/02/23 07:47:30;;;;;;;28.30;25.20;;;11.70;99.90;;;;;;5009017;28;20881;-74
2023/02/23 07:50:01;;;;;;;26.65;23.75;;;11.70;99.90;;;;;;5008626;28;20213;-74
2023/02/23 07:52:27;;;;;;;28.08;24.40;;;11.70;99.90;;;;;;5008786;28;20186;-74
2023/02/23 07:54:56;;;;;;;30.42;25.23;;;11.70;99.90;;;;;;5008860;28;20203;-74
2023/02/23 07:57:22;;;;;;;31.20;25.38;;;11.70;99.90;;;;;;4995326;28;20264;-74
2023/02/23 07:59:49;;;;;;;28.08;24.27;;;11.70;99.90;;;;;;4988989;28;20179;-74
2023/02/23 08:02:15;;;;;;;29.75;23.40;;;11.70;99.90;;;;;;4999232;28;20190;-74
2023/02/23 08:04:42;;;;;;;31.60;24.70;;;11.70;99.90;;;;;;5010216;28;20210;-74
2023/02/23 08:07:09;;;;;;;29.13;23.10;;;11.70;99.90;;;;;;5042342;22;20622;-79
2023/02/23 08:09:35;;;;;;;31.98;25.40;;;11.70;99.90;;;;;;5016927;28;20217;-79
2023/02/23 08:12:01;;;;;;;28.33;23.90;;;11.70;99.90;;;;;;5009241;28;20225;-79
2023/02/23 08:14:27;;;;;;;30.20;25.50;;;11.70;99.90;;;;;;5011259;28;20182;-79
2023/02/23 08:16:53;;;;;;;34.50;26.07;;;11.70;99.90;;;;;;5011559;28;20547;-77
2023/02/23 08:19:22;;;;;;;29.27;23.73;;;11.70;99.90;;;;;;5021611;28;20180;-78
2023/02/23 08:21:50;;;;;;;29.98;24.88;;;11.70;99.90;;;;;;5045233;28;20646;-78
2023/02/23 08:24:16;;;;;;;30.38;23.13;;;11.80;99.90;;;;;;5051384;28;20197;-79
2023/02/23 08:26:42;;;;;;;34.70;23.80;;;11.80;99.90;;;;;;5043041;28;20564;-78
2023/02/23 08:29:09;;;;;;;28.93;23.07;;;11.80;99.90;;;;;;5026385;28;20194;-78
2023/02/23 08:31:35;;;;;;;28.58;22.30;;;11.80;99.90;;;;;;5016123;28;20213;-77
2023/02/23 08:34:01;;;;;;;30.10;23.10;;;11.80;99.90;;;;;;5014304;28;20170;-77
2023/02/23 08:36:27;;;;;;;26.20;21.47;;;11.80;99.90;;;;;;5014188;28;20201;-77
2023/02/23 08:38:53;;;;;;;26.70;20.65;;;11.90;99.90;;;;;;5014384;28;20596;-77
2023/02/23 08:41:19;;;;;;;26.67;21.70;;;11.90;99.90;;;;;;5029234;28;20178;-77
2023/02/23 08:43:46;;;;;;;32.25;25.10;;;11.90;99.90;;;;;;5014164;28;20174;-77
2023/02/23 08:46:12;;;;;;;31.67;25.92;;;11.90;99.90;;;;;;5012726;28;20194;-77
2023/02/23 08:48:39;;;;;;;30.90;22.52;;;11.90;99.90;;;;;;5012039;28;20174;-77
2023/02/23 08:51:06;;;;;;;30.38;25.73;;;11.90;99.90;;;;;;5011633;28;20572;-76
2023/02/23 08:53:32;;;;;;;28.02;22.92;;;11.90;99.90;;;;;;5012864;28;20586;-76
2023/02/23 08:56:00;;;;;;;30.23;23.23;;;11.90;99.90;;;;;;5012173;28;20194;-76
2023/02/23 08:58:29;;;;;;;31.92;23.92;;;11.90;99.90;;;;;;5020885;28;20581;-76
2023/02/23 09:00:55;;;;;;;33.15;24.52;;;11.90;99.90;;;;;;5015174;28;20193;-76
2023/02/23 09:03:25;;;;;;;30.33;25.80;;;11.90;99.90;;;;;;5031375;28;20184;-76
2023/02/23 09:05:51;;;;;;;32.17;24.83;;;11.90;99.90;;;;;;5032642;28;20211;-77
2023/02/23 09:08:16;;;;;;;25.13;22.05;;;11.90;99.90;;;;;;5048327;28;20214;-76
2023/02/23 09:10:45;;;;;;;33.00;25.60;;;11.90;99.90;;;;;;5032187;28;20237;-76
2023/02/23 09:13:11;;;;;;;32.38;27.17;;;11.90;99.90;;;;;;5048019;28;20181;-76
2023/02/23 09:15:41;;;;;;;34.00;27.73;;;11.90;99.90;;;;;;5032336;28;20579;-78
2023/02/23 09:18:12;;;;;;;35.65;24.80;;;11.90;99.90;;;;;;5031650;28;20185;-78
2023/02/23 09:20:41;;;;;;;31.17;24.55;;;11.90;99.90;;;;;;5031704;28;20185;-75
2023/02/23 09:23:07;;;;;;;29.95;22.92;;;11.90;99.90;;;;;;5030970;28;20197;-78
2023/02/23 09:25:32;;;;;;;34.03;27.50;;;12.00;99.90;;;;;;5032602;28;20209;-78
2023/02/23 09:28:01;;;;;;;32.73;25.80;;;12.00;99.90;;;;;;5032364;28;20717;-77
2023/02/23 09:30:27;;;;;;;29.33;23.48;;;12.00;99.90;;;;;;5031137;28;20201;-77
2023/02/23 09:32:55;;;;;;;29.50;24.00;;;12.00;99.90;;;;;;5031185;28;20228;-78
2023/02/23 09:35:22;;;;;;;26.50;22.00;;;12.00;99.90;;;;;;5033275;28;20584;-76
2023/02/23 09:37:53;;;;;;;33.42;24.42;;;12.00;99.90;;;;;;5033655;28;20201;-78
2023/02/23 09:40:22;;;;;;;32.40;23.52;;;12.00;99.90;;;;;;5032346;28;20212;-77
2023/02/23 09:42:57;;;;;;;34.45;25.00;;;12.00;99.90;;;;;;5031738;28;20177;-76
2023/02/23 09:45:32;;;;;;;31.38;24.02;;;12.00;99.90;;;;;;5047877;28;20664;-75
2023/02/23 09:47:58;;;;;;;31.15;25.20;;;12.00;99.90;;;;;;5030534;28;20176;-78
2023/02/23 09:50:27;;;;;;;30.75;24.35;;;12.00;99.90;;;;;;5030489;28;20224;-77
2023/02/23 09:53:05;;;;;;;29.20;22.80;;;12.00;99.90;;;;;;5030748;28;20803;-77
2023/02/23 09:55:31;;;;;;;28.45;24.58;;;12.00;99.90;;;;;;5016958;28;20198;-77
2023/02/23 09:58:04;;;;;;;28.60;23.95;;;12.00;99.90;;;;;;5011043;28;20184;-76
2023/02/23 10:00:38;;;;;;;31.10;22.95;;;12.00;99.90;;;;;;5026978;28;20178;-76
2023/02/23 10:03:29;;;;;;;28.42;23.15;;;12.00;99.90;;;;;;5027344;28;20182;-76
2023/02/23 10:06:00;;;;;;;28.33;21.85;;;12.00;99.90;;;;;;5010505;28;20268;-76
2023/02/23 10:08:44;;;;;;;30.42;23.05;;;12.00;99.90;;;;;;5012255;28;20193;-75
2023/02/23 10:11:57;;;;;;;28.77;23.63;;;12.00;99.90;;;;;;5026073;28;20198;-76
2023/02/23 10:15:00;;;;;;;25.75;20.95;;;12.00;99.90;;;;;;4955291;29;20184;-75
2023/02/23 10:17:54;;;;;;;25.88;19.83;;;12.00;99.90;;;;;;5010823;28;20236;-76
2023/02/23 10:20:36;;;;;;;26.10;20.02;;;12.00;99.90;;;;;;5020397;28;20235;-75
2023/02/23 10:23:06;;;;;;;20.45;17.13;;;12.00;99.90;;;;;;5046153;28;20284;-75
2023/02/23 10:25:37;;;;;;;24.85;18.73;;;12.00;99.90;;;;;;5042874;28;20213;-76
2023/02/23 10:28:03;;;;;;;23.15;19.65;;;12.00;99.90;;;;;;5028957;28;20177;-75
2023/02/23 10:30:32;;;;;;;23.00;19.13;;;12.00;99.90;;;;;;5031269;28;20205;-76
2023/02/23 10:33:13;;;;;;;29.02;20.92;;;12.00;99.90;;;;;;5030827;28;21127;-76
2023/02/23 10:35:39;;;;;;;19.48;16.95;;;12.00;99.90;;;;;;5014724;28;20180;-76
2023/02/23 10:38:05;;;;;;;26.17;20.60;;;12.10;99.90;;;;;;5014937;28;20166;-76
2023/02/23 10:40:34;;;;;;;22.77;19.47;;;12.10;99.90;;;;;;5031471;28;20555;-78
2023/02/23 10:43:03;;;;;;;22.92;18.95;;;12.10;99.90;;;;;;5030229;28;20596;-76
2023/02/23 10:45:37;;;;;;;20.00;17.98;;;12.10;99.90;;;;;;5031180;28;20586;-76
2023/02/23 10:48:16;;;;;;;21.33;18.00;;;12.10;99.90;;;;;;5030335;28;20239;-76
2023/02/23 10:50:44;;;;;;;20.77;18.40;;;12.00;99.90;;;;;;5022833;28;20260;-76
2023/02/23 10:53:24;;;;;;;22.83;19.75;;;12.10;99.90;;;;;;5029249;28;20181;-76
2023/02/23 10:56:20;;;;;;;24.23;19.58;;;12.10;99.90;;;;;;5017040;28;20194;-76
2023/02/23 10:58:52;;;;;;;25.58;18.70;;;12.00;99.90;;;;;;4998611;28;20182;-77
2023/02/23 11:01:43;;;;;;;26.80;19.65;;;12.10;99.90;;;;;;5025434;28;20182;-76
2023/02/23 11:04:21;;;;;;;27.58;20.65;;;12.00;99.90;;;;;;5011094;28;20177;-76
2023/02/23 11:06:48;;;;;;;26.48;21.63;;;12.00;99.90;;;;;;5009084;28;20210;-77
2023/02/23 11:09:26;;;;;;;27.48;22.77;;;12.00;99.90;;;;;;5010318;28;20174;-76
2023/02/23 11:11:59;;;;;;;26.80;21.33;;;12.00;99.90;;;;;;5016534;28;20182;-77
2023/02/23 11:14:27;;;;;;;24.58;20.08;;;12.00;99.90;;;;;;5039096;28;20197;-76
2023/02/23 11:16:57;;;;;;;24.45;20.05;;;12.00;99.90;;;;;;5040945;28;20186;-76
2023/02/23 11:19:33;;;;;;;27.17;21.55;;;12.00;99.90;;;;;;5026666;28;20196;-77
2023/02/23 11:21:59;;;;;;;23.95;18.63;;;12.00;99.90;;;;;;5015415;28;20552;-76
2023/02/23 11:24:30;;;;;;;23.80;19.55;;;12.00;99.90;;;;;;5021344;28;20182;-77
2023/02/23 11:27:02;;;;;;;27.67;20.58;;;12.00;99.90;;;;;;5020065;28;20236;-78
2023/02/23 11:29:40;;;;;;;31.85;21.45;;;12.00;99.90;;;;;;5012453;28;20353;-77
2023/02/23 11:32:14;;;;;;;28.42;23.20;;;12.00;99.90;;;;;;5024977;28;20244;-76
2023/02/23 11:34:42;;;;;;;29.80;22.52;;;12.00;99.90;;;;;;5021562;28;20178;-76
2023/02/23 11:37:22;;;;;;;29.80;22.98;;;12.00;99.90;;;;;;5022342;28;20568;-76
2023/02/23 11:40:00;;;;;;;29.63;22.90;;;12.00;99.90;;;;;;5002293;28;20189;-76
2023/02/23 11:42:33;;;;;;;29.40;23.00;;;12.10;99.90;;;;;;5029993;28;20185;-77
2023/02/23 11:45:26;;;;;;;29.38;21.50;;;12.00;99.90;;;;;;5012582;28;20174;-77
2023/02/23 11:47:55;;;;;;;30.33;23.33;;;12.10;99.90;;;;;;4999177;28;20206;-77
2023/02/23 11:50:24;;;;;;;26.80;22.42;;;12.10;99.90;;;;;;5027182;28;20289;-78
2023/02/23 11:53:11;;;;;;;32.55;24.85;;;12.10;99.90;;;;;;5027966;28;20170;-73
2023/02/23 11:55:37;;;;;;;29.48;21.05;;;12.10;99.90;;;;;;5032339;28;20178;-75
2023/02/23 11:58:19;;;;;;;29.38;22.73;;;12.10;99.90;;;;;;5013765;28;20163;-75
2023/02/23 12:00:58;;;;;;;34.35;24.00;;;12.10;99.90;;;;;;5012535;28;20266;-75
2023/02/23 12:03:26;;;;;;;36.20;24.92;;;12.10;99.90;;;;;;5012119;28;20712;-74
2023/02/23 12:05:57;;;;;;;32.95;23.40;;;12.10;99.90;;;;;;5015597;28;20210;-74
2023/02/23 12:08:34;;;;;;;31.58;22.75;;;12.00;99.90;;;;;;5012084;28;20171;-74
2023/02/23 12:11:04;;;;;;;34.08;21.02;;;11.90;99.90;;;;;;5012225;28;20600;-75
2023/02/23 12:14:06;;;;;;;30.38;21.98;;;12.00;99.90;;;;;;5012075;28;20178;-75
2023/02/23 12:16:42;;;;;;;30.00;20.38;;;11.90;99.90;;;;;;5013526;28;20193;-74
2023/02/23 12:19:56;;;;;;;31.45;21.63;;;11.90;99.90;;;;;;5020021;28;20185;-75
2023/02/23 12:22:32;;;;;;;30.88;22.02;;;11.80;99.90;;;;;;5013568;28;20260;-76
2023/02/23 12:25:13;;;;;;;34.35;21.75;;;11.80;99.90;;;;;;5024344;28;20645;-82
2023/02/23 12:27:53;;;;;;;33.83;22.10;;;11.80;99.90;;;;;;5033092;28;20209;-83
2023/02/23 12:30:40;;;;;;;31.80;23.15;;;11.80;99.90;;;;;;5028898;28;20289;-83
2023/02/23 12:33:11;;;;;;;33.58;20.83;;;11.80;99.90;;;;;;5009865;28;20178;-81
2023/02/23 12:35:44;;;;;;;29.73;21.88;;;11.80;99.90;;;;;;5013778;28;20665;-81
2023/02/23 12:38:26;;;;;;;38.10;24.80;;;11.80;99.90;;;;;;5014030;28;20206;-83
2023/02/23 12:41:05;;;;;;;35.15;24.20;;;11.70;99.90;;;;;;5030049;28;20174;-83
2023/02/23 12:43:58;;;;;;;35.40;25.00;;;11.70;99.90;;;;;;5016733;28;20548;-83
2023/02/23 12:46:34;;;;;;;33.25;21.45;;;11.70;99.90;;;;;;4996749;28;20186;-83
2023/02/23 12:49:12;;;;;;;36.70;24.38;;;11.70;99.90;;;;;;5014081;28;20245;-83
2023/02/23 12:51:50;;;;;;;32.90;21.83;;;11.70;99.90;;;;;;5011823;28;20206;-82
2023/02/23 12:54:17;;;;;;;37.58;25.00;;;11.70;99.90;;;;;;5012189;28;20208;-80
2023/02/23 12:56:50;;;;;;;35.60;23.38;;;11.70;99.90;;;;;;5012693;28;20190;-81
2023/02/23 12:59:39;;;;;;;35.08;23.70;;;11.70;99.90;;;;;;5028044;28;20631;-82
2023/02/23 13:02:15;;;;;;;39.83;24.35;;;11.70;99.90;;;;;;5022390;28;20264;-82
2023/02/23 13:05:04;;;;;;;35.65;22.25;;;11.70;99.90;;;;;;5029153;28;20178;-82
2023/02/23 13:08:02;;;;;;;30.35;21.60;;;11.70;99.90;;;;;;5029963;28;20225;-82
2023/02/23 13:10:55;;;;;;;31.33;21.00;;;11.70;99.90;;;;;;4967768;28;20276;-82
2023/02/23 13:13:42;;;;;;;29.65;21.40;;;11.70;99.90;;;;;;5017779;28;20262;-82
2023/02/23 13:16:29;;;;;;;25.27;17.92;;;11.70;99.90;;;;;;5034784;28;20192;-82
2023/02/23 13:19:06;;;;;;;29.45;20.38;;;11.70;99.90;;;;;;5035023;28;20173;-82
2023/02/23 13:22:17;;;;;;;29.88;19.70;;;11.70;99.90;;;;;;5032627;28;20664;-82
2023/02/23 13:24:48;;;;;;;33.40;21.95;;;11.70;99.90;;;;;;5016216;28;20748;-82
2023/02/23 13:27:51;;;;;;;33.10;23.40;;;11.80;99.90;;;;;;5034307;28;20193;-80
2023/02/23 13:30:19;;;;;;;29.17;21.10;;;11.80;99.90;;;;;;5001791;28;20270;-80
2023/02/23 13:32:46;;;;;;;28.95;19.90;;;11.80;99.90;;;;;;5031853;28;20223;-79
2023/02/23 13:35:21;;;;;;;31.55;22.10;;;11.80;99.90;;;;;;5031818;28;20654;-81
2023/02/23 13:37:58;;;;;;;32.42;21.90;;;11.80;99.90;;;;;;5032469;28;20200;-80
2023/02/23 13:41:02;;;;;;;44.20;24.90;;;11.80;99.90;;;;;;5033468;28;20223;-79
2023/02/23 13:43:46;;;;;;;25.92;19.02;;;11.70;99.90;;;;;;5015948;28;20372;-80
2023/02/23 13:46:24;;;;;;;33.72;21.25;;;11.70;99.90;;;;;;5034054;28;20531;-78
2023/02/23 13:48:50;;;;;;;29.27;19.00;;;11.70;99.90;;;;;;5031264;28;20193;-77
2023/02/23 13:51:40;;;;;;;30.17;18.20;;;11.70;99.90;;;;;;5029665;28;20559;-78
2023/02/23 13:54:23;;;;;;;28.20;17.88;;;11.70;99.90;;;;;;5030757;28;20551;-79
2023/02/23 13:56:53;;;;;;;31.20;20.02;;;11.70;99.90;;;;;;5035766;28;20216;-79
2023/02/23 13:59:22;;;;;;;26.95;17.23;;;11.70;99.90;;;;;;5032255;28;20178;-79
2023/02/23 14:01:51;;;;;;;29.73;19.92;;;11.70;99.90;;;;;;5029635;28;20256;-80
2023/02/23 14:04:33;;;;;;;25.75;16.45;;;11.70;99.90;;;;;;5032184;28;20209;-78
2023/02/23 14:07:08;;;;;;;25.98;18.35;;;11.80;99.90;;;;;;5032416;28;20289;-79
2023/02/23 14:09:38;;;;;;;23.95;16.35;;;11.80;99.90;;;;;;5038941;28;20263;-78
2023/02/23 14:12:11;;;;;;;24.08;16.58;;;11.80;99.90;;;;;;5038348;28;20178;-78
2023/02/23 14:14:43;;;;;;;21.00;15.02;;;11.90;99.90;;;;;;5019584;28;20257;-76
2023/02/23 14:17:14;;;;;;;23.83;15.80;;;11.90;99.90;;;;;;5034426;28;20197;-77